^^
Station Historical Data
Daily Summary for March 25, 2017 Units:  Both    English   Metric
« Previous Day
Next Day »
Daily Weekly Monthly Yearly Custom
  High: Low: Average:
Temperature: 85.3 °F /  29.6 °C 57.7 °F /  14.3 °C 72.6 °F /  22.6 °C
Dew Point: 55.4 °F /  13 °C 31.5 °F /  -0.3 °C 46.8 °F /  8.2 °C
Humidity: 59% 27% 41%
Wind Speed: 8.9mph /  14.3km/h - 1.7mph /  2.7km/h
Wind Gust: 12.0mph /  19.3km/h - -
Wind- - SE
Pressure: 29.91 in /  1012.8 hPa 29.78 in /  1008.4 hPa -
Precipitation: 0.00 in /  0 mm    
Historical Graphs
 
 
Tabular Data for March 25, 2017
Time Temperature Dew Point Pressure Wind Wind Speed Wind Gust Humidity Rainfall Rate (Hourly) solar Conditions
00:07 66.4 °F /  19.1 °C 37.9 °F /  3.3 °C 29.89in /  1012.1hPa SSE 0.9mph /  1.4km/h 8.0mph /  12.9km/h 35% 0.00in /  0mm 0.0 W/m2
00:13 66.7 °F /  19.3 °C 38.3 °F /  3.5 °C 29.89in /  1012.1hPa SSE 2.0mph /  3.2km/h 4.0mph /  6.4km/h 35% 0.00in /  0mm 0.0 W/m2
00:19 66.7 °F /  19.3 °C 39.0 °F /  3.9 °C 29.89in /  1012.1hPa ESE 0.9mph /  1.4km/h 2.0mph /  3.2km/h 36% 0.00in /  0mm 0.0 W/m2
00:25 66.6 °F /  19.2 °C 39.6 °F /  4.2 °C 29.89in /  1012.1hPa Calm   2.0mph /  3.2km/h 37% 0.00in /  0mm 0.0 W/m2
00:31 66.4 °F /  19.1 °C 39.4 °F /  4.1 °C 29.89in /  1012.1hPa ESE 0.9mph /  1.4km/h 2.0mph /  3.2km/h 37% 0.00in /  0mm 0.0 W/m2
00:37 65.8 °F /  18.8 °C 39.6 °F /  4.2 °C 29.89in /  1012.1hPa SE 2.0mph /  3.2km/h 3.0mph /  4.8km/h 38% 0.00in /  0mm 0.0 W/m2
00:43 65.7 °F /  18.7 °C 39.4 °F /  4.1 °C 29.89in /  1012.1hPa Calm   3.0mph /  4.8km/h 38% 0.00in /  0mm 0.0 W/m2
00:49 65.1 °F /  18.4 °C 38.1 °F /  3.4 °C 29.89in /  1012.1hPa Calm   3.0mph /  4.8km/h 37% 0.00in /  0mm 0.0 W/m2
00:55 64.9 °F /  18.3 °C 38.7 °F /  3.7 °C 29.89in /  1012.1hPa SE 2.0mph /  3.2km/h 2.0mph /  3.2km/h 38% 0.00in /  0mm 0.0 W/m2
01:01 64.8 °F /  18.2 °C 37.9 °F /  3.3 °C 29.89in /  1012.1hPa SE 0.9mph /  1.4km/h 3.0mph /  4.8km/h 37% 0.00in /  0mm 0.0 W/m2
01:08 64.8 °F /  18.2 °C 37.2 °F /  2.9 °C 29.89in /  1012.1hPa SSW 0.9mph /  1.4km/h 1.0mph /  1.6km/h 36% 0.00in /  0mm 0.0 W/m2
01:14 64.8 °F /  18.2 °C 36.5 °F /  2.5 °C 29.89in /  1012.1hPa Calm   4.0mph /  6.4km/h 35% 0.00in /  0mm 0.0 W/m2
01:20 64.8 °F /  18.2 °C 36.5 °F /  2.5 °C 29.89in /  1012.1hPa Calm   1.0mph /  1.6km/h 35% 0.00in /  0mm 0.0 W/m2
01:26 64.6 °F /  18.1 °C 37.0 °F /  2.8 °C 29.89in /  1012.1hPa SE 2.0mph /  3.2km/h 2.0mph /  3.2km/h 36% 0.00in /  0mm 0.0 W/m2
01:32 64.4 °F /  18 °C 37.6 °F /  3.1 °C 29.88in /  1011.7hPa SE 0.9mph /  1.4km/h 1.0mph /  1.6km/h 37% 0.00in /  0mm 0.0 W/m2
01:38 64.2 °F /  17.9 °C 35.2 °F /  1.8 °C 29.88in /  1011.7hPa SSW 2.0mph /  3.2km/h 2.0mph /  3.2km/h 34% 0.00in /  0mm 0.0 W/m2
01:44 64.2 °F /  17.9 °C 33.8 °F /  1 °C 29.88in /  1011.7hPa SE 0.9mph /  1.4km/h 7.0mph /  11.3km/h 32% 0.00in /  0mm 0.0 W/m2
01:51 64.6 °F /  18.1 °C 34.9 °F /  1.6 °C 29.88in /  1011.7hPa Calm   1.0mph /  1.6km/h 33% 0.00in /  0mm 0.0 W/m2
01:57 64.6 °F /  18.1 °C 34.9 °F /  1.6 °C 29.88in /  1011.7hPa Calm   1.0mph /  1.6km/h 33% 0.00in /  0mm 0.0 W/m2
02:03 64.6 °F /  18.1 °C 34.9 °F /  1.6 °C 29.88in /  1011.7hPa Calm   1.0mph /  1.6km/h 33% 0.00in /  0mm 0.0 W/m2
02:09 64.6 °F /  18.1 °C 34.0 °F /  1.1 °C 29.88in /  1011.7hPa Calm   4.0mph /  6.4km/h 32% 0.00in /  0mm 0.0 W/m2
02:15 64.6 °F /  18.1 °C 34.0 °F /  1.1 °C 29.87in /  1011.4hPa Calm   3.0mph /  4.8km/h 32% 0.00in /  0mm 0.0 W/m2
02:21 64.8 °F /  18.2 °C 34.2 °F /  1.2 °C 29.87in /  1011.4hPa SSW 0.9mph /  1.4km/h 3.0mph /  4.8km/h 32% 0.00in /  0mm 0.0 W/m2
02:27 64.9 °F /  18.3 °C 33.6 °F /  0.9 °C 29.87in /  1011.4hPa SSE 2.9mph /  4.7km/h 8.0mph /  12.9km/h 31% 0.00in /  0mm 0.0 W/m2
02:40 65.8 °F /  18.8 °C 32.7 °F /  0.4 °C 29.88in /  1011.7hPa SSE 2.9mph /  4.7km/h 7.0mph /  11.3km/h 29% 0.00in /  0mm 0.0 W/m2
02:46 66.2 °F /  19 °C 32.2 °F /  0.1 °C 29.88in /  1011.7hPa SSE 8.9mph /  14.3km/h 11.0mph /  17.7km/h 28% 0.00in /  0mm 0.0 W/m2
02:52 66.6 °F /  19.2 °C 32.4 °F /  0.2 °C 29.87in /  1011.4hPa South 2.0mph /  3.2km/h 7.0mph /  11.3km/h 28% 0.00in /  0mm 0.0 W/m2
02:58 66.6 °F /  19.2 °C 31.5 °F /  -0.3 °C 29.88in /  1011.7hPa SSE 2.0mph /  3.2km/h 7.0mph /  11.3km/h 27% 0.00in /  0mm 0.0 W/m2
03:04 66.6 °F /  19.2 °C 31.5 °F /  -0.3 °C 29.87in /  1011.4hPa SSE 0.9mph /  1.4km/h 8.0mph /  12.9km/h 27% 0.00in /  0mm 0.0 W/m2
03:10 66.7 °F /  19.3 °C 31.6 °F /  -0.2 °C 29.87in /  1011.4hPa ESE 2.0mph /  3.2km/h 9.0mph /  14.5km/h 27% 0.00in /  0mm 0.0 W/m2
03:16 66.7 °F /  19.3 °C 32.5 °F /  0.3 °C 29.87in /  1011.4hPa SSE 2.9mph /  4.7km/h 6.0mph /  9.7km/h 28% 0.00in /  0mm 0.0 W/m2
03:22 66.7 °F /  19.3 °C 31.6 °F /  -0.2 °C 29.87in /  1011.4hPa SSE 2.9mph /  4.7km/h 11.0mph /  17.7km/h 27% 0.00in /  0mm 0.0 W/m2
03:29 66.7 °F /  19.3 °C 31.6 °F /  -0.2 °C 29.87in /  1011.4hPa SSW 2.9mph /  4.7km/h 12.0mph /  19.3km/h 27% 0.00in /  0mm 0.0 W/m2
03:35 66.7 °F /  19.3 °C 31.6 °F /  -0.2 °C 29.86in /  1011.1hPa South 4.9mph /  7.9km/h 11.0mph /  17.7km/h 27% 0.00in /  0mm 0.0 W/m2
03:41 66.6 °F /  19.2 °C 31.5 °F /  -0.3 °C 29.86in /  1011.1hPa SSE 4.0mph /  6.4km/h 10.0mph /  16.1km/h 27% 0.00in /  0mm 0.0 W/m2
03:47 66.6 °F /  19.2 °C 32.4 °F /  0.2 °C 29.86in /  1011.1hPa SE 6.9mph /  11.1km/h 8.0mph /  12.9km/h 28% 0.00in /  0mm 0.0 W/m2
03:53 66.4 °F /  19.1 °C 32.4 °F /  0.2 °C 29.86in /  1011.1hPa SE 4.0mph /  6.4km/h 5.0mph /  8km/h 28% 0.00in /  0mm 0.0 W/m2
03:59 66.2 °F /  19 °C 32.2 °F /  0.1 °C 29.86in /  1011.1hPa South 4.0mph /  6.4km/h 10.0mph /  16.1km/h 28% 0.00in /  0mm 0.0 W/m2
04:05 66.0 °F /  18.9 °C 32.0 °F /  0 °C 29.86in /  1011.1hPa SE 6.9mph /  11.1km/h 9.0mph /  14.5km/h 28% 0.00in /  0mm 0.0 W/m2
04:11 66.0 °F /  18.9 °C 32.9 °F /  0.5 °C 29.86in /  1011.1hPa SSE 4.0mph /  6.4km/h 9.0mph /  14.5km/h 29% 0.00in /  0mm 0.0 W/m2
04:17 65.8 °F /  18.8 °C 32.7 °F /  0.4 °C 29.86in /  1011.1hPa SSW 0.9mph /  1.4km/h 11.0mph /  17.7km/h 29% 0.00in /  0mm 0.0 W/m2
04:24 65.8 °F /  18.8 °C 32.7 °F /  0.4 °C 29.86in /  1011.1hPa SSE 4.9mph /  7.9km/h 7.0mph /  11.3km/h 29% 0.00in /  0mm 0.0 W/m2
04:30 65.8 °F /  18.8 °C 32.7 °F /  0.4 °C 29.86in /  1011.1hPa ESE 6.9mph /  11.1km/h 8.0mph /  12.9km/h 29% 0.00in /  0mm 0.0 W/m2
04:36 65.8 °F /  18.8 °C 32.7 °F /  0.4 °C 29.86in /  1011.1hPa SSE 8.1mph /  13km/h 10.0mph /  16.1km/h 29% 0.00in /  0mm 0.0 W/m2
04:42 66.0 °F /  18.9 °C 32.9 °F /  0.5 °C 29.86in /  1011.1hPa Calm   6.0mph /  9.7km/h 29% 0.00in /  0mm 0.0 W/m2
04:48 66.0 °F /  18.9 °C 32.9 °F /  0.5 °C 29.86in /  1011.1hPa ESE 4.0mph /  6.4km/h 11.0mph /  17.7km/h 29% 0.00in /  0mm 0.0 W/m2
04:54 66.0 °F /  18.9 °C 32.9 °F /  0.5 °C 29.85in /  1010.7hPa SW 2.0mph /  3.2km/h 8.0mph /  12.9km/h 29% 0.00in /  0mm 0.0 W/m2
05:00 66.0 °F /  18.9 °C 32.9 °F /  0.5 °C 29.85in /  1010.7hPa SSW 2.9mph /  4.7km/h 7.0mph /  11.3km/h 29% 0.00in /  0mm 0.0 W/m2
05:06 66.0 °F /  18.9 °C 32.9 °F /  0.5 °C 29.85in /  1010.7hPa Calm   6.0mph /  9.7km/h 29% 0.00in /  0mm 0.0 W/m2
05:12 65.8 °F /  18.8 °C 33.6 °F /  0.9 °C 29.86in /  1011.1hPa ESE 2.9mph /  4.7km/h 3.0mph /  4.8km/h 30% 0.00in /  0mm 0.0 W/m2
05:19 65.7 °F /  18.7 °C 35.1 °F /  1.7 °C 29.86in /  1011.1hPa Calm   1.0mph /  1.6km/h 32% 0.00in /  0mm 0.0 W/m2
05:25 65.1 °F /  18.4 °C 34.5 °F /  1.4 °C 29.86in /  1011.1hPa SSW 4.9mph /  7.9km/h 6.0mph /  9.7km/h 32% 0.00in /  0mm 0.0 W/m2
05:31 64.8 °F /  18.2 °C 34.2 °F /  1.2 °C 29.86in /  1011.1hPa SSW 0.9mph /  1.4km/h 4.0mph /  6.4km/h 32% 0.00in /  0mm 0.0 W/m2
05:37 64.4 °F /  18 °C 34.0 °F /  1.1 °C 29.86in /  1011.1hPa Calm   6.0mph /  9.7km/h 32% 0.00in /  0mm 0.0 W/m2
05:43 64.2 °F /  17.9 °C 34.5 °F /  1.4 °C 29.86in /  1011.1hPa Calm     33% 0.00in /  0mm 0.0 W/m2
05:49 63.9 °F /  17.7 °C 34.9 °F /  1.6 °C 29.86in /  1011.1hPa SSW 2.0mph /  3.2km/h 3.0mph /  4.8km/h 34% 0.00in /  0mm 0.0 W/m2
05:55 63.7 °F /  17.6 °C 35.6 °F /  2 °C 29.86in /  1011.1hPa Calm   2.0mph /  3.2km/h 35% 0.00in /  0mm 0.0 W/m2
06:02 63.1 °F /  17.3 °C 35.8 °F /  2.1 °C 29.86in /  1011.1hPa Calm     36% 0.00in /  0mm 0.0 W/m2
06:08 62.8 °F /  17.1 °C 37.4 °F /  3 °C 29.86in /  1011.1hPa Calm     39% 0.00in /  0mm 0.0 W/m2
06:14 62.2 °F /  16.8 °C 38.8 °F /  3.8 °C 29.86in /  1011.1hPa Calm   1.0mph /  1.6km/h 42% 0.00in /  0mm 0.0 W/m2
06:26 61.2 °F /  16.2 °C 40.3 °F /  4.6 °C 29.87in /  1011.4hPa Calm     46% 0.00in /  0mm 0.0 W/m2
06:38 59.9 °F /  15.5 °C 41.2 °F /  5.1 °C 29.87in /  1011.4hPa Calm     50% 0.00in /  0mm 0.0 W/m2
06:44 59.4 °F /  15.2 °C 40.6 °F /  4.8 °C 29.87in /  1011.4hPa Calm   1.0mph /  1.6km/h 50% 0.00in /  0mm 0.0 W/m2
06:51 59.0 °F /  15 °C 41.4 °F /  5.2 °C 29.87in /  1011.4hPa ENE 0.9mph /  1.4km/h 1.0mph /  1.6km/h 52% 0.00in /  0mm 0.0 W/m2
06:59 58.5 °F /  14.7 °C 41.4 °F /  5.2 °C 29.88in /  1011.7hPa Calm     53% 0.00in /  0mm 0.0 W/m2
07:05 58.3 °F /  14.6 °C 41.2 °F /  5.1 °C 29.88in /  1011.7hPa Calm     53% 0.00in /  0mm 7.0 W/m2
07:11 58.1 °F /  14.5 °C 42.4 °F /  5.8 °C 29.88in /  1011.7hPa Calm   1.0mph /  1.6km/h 56% 0.00in /  0mm 9.0 W/m2
07:17 57.7 °F /  14.3 °C 41.7 °F /  5.4 °C 29.88in /  1011.7hPa Calm     55% 0.00in /  0mm 11.0 W/m2
07:23 57.7 °F /  14.3 °C 43.0 °F /  6.1 °C 29.88in /  1011.7hPa Calm   2.0mph /  3.2km/h 58% 0.00in /  0mm 12.0 W/m2
07:30 57.7 °F /  14.3 °C 42.6 °F /  5.9 °C 29.88in /  1011.7hPa Calm   1.0mph /  1.6km/h 57% 0.00in /  0mm 16.0 W/m2
07:38 57.7 °F /  14.3 °C 42.6 °F /  5.9 °C 29.88in /  1011.7hPa Calm     57% 0.00in /  0mm 18.0 W/m2
07:45 57.9 °F /  14.4 °C 43.7 °F /  6.5 °C 29.89in /  1012.1hPa Calm   1.0mph /  1.6km/h 59% 0.00in /  0mm 19.0 W/m2
07:50 58.3 °F /  14.6 °C 42.6 °F /  5.9 °C 29.89in /  1012.1hPa Calm     56% 0.00in /  0mm 21.0 W/m2
07:56 58.5 °F /  14.7 °C 43.3 °F /  6.3 °C 29.89in /  1012.1hPa Calm     57% 0.00in /  0mm 23.0 W/m2
08:02 58.8 °F /  14.9 °C 43.7 °F /  6.5 °C 29.90in /  1012.4hPa Calm   1.0mph /  1.6km/h 57% 0.00in /  0mm 23.0 W/m2
08:08 59.5 °F /  15.3 °C 44.8 °F /  7.1 °C 29.90in /  1012.4hPa Calm   2.0mph /  3.2km/h 58% 0.00in /  0mm 25.0 W/m2
08:15 60.3 °F /  15.7 °C 45.0 °F /  7.2 °C 29.90in /  1012.4hPa Calm     57% 0.00in /  0mm 25.0 W/m2
08:21 60.6 °F /  15.9 °C 45.7 °F /  7.6 °C 29.90in /  1012.4hPa Calm     58% 0.00in /  0mm 26.0 W/m2
08:27 61.2 °F /  16.2 °C 43.3 °F /  6.3 °C 29.91in /  1012.8hPa Calm     52% 0.00in /  0mm 28.0 W/m2
08:33 61.5 °F /  16.4 °C 43.7 °F /  6.5 °C 29.91in /  1012.8hPa Calm     52% 0.00in /  0mm 30.0 W/m2
08:39 62.1 °F /  16.7 °C 44.8 °F /  7.1 °C 29.91in /  1012.8hPa Calm   1.0mph /  1.6km/h 53% 0.00in /  0mm 30.0 W/m2
08:45 62.8 °F /  17.1 °C 44.4 °F /  6.9 °C 29.91in /  1012.8hPa Calm     51% 0.00in /  0mm 30.0 W/m2
08:51 63.3 °F /  17.4 °C 44.4 °F /  6.9 °C 29.91in /  1012.8hPa Calm   1.0mph /  1.6km/h 50% 0.00in /  0mm 30.0 W/m2
08:57 64.0 °F /  17.8 °C 44.4 °F /  6.9 °C 29.91in /  1012.8hPa Calm   1.0mph /  1.6km/h 49% 0.00in /  0mm 32.0 W/m2
09:03 64.8 °F /  18.2 °C 45.7 °F /  7.6 °C 29.91in /  1012.8hPa Calm   1.0mph /  1.6km/h 50% 0.00in /  0mm 42.0 W/m2
09:10 65.7 °F /  18.7 °C 46.6 °F /  8.1 °C 29.91in /  1012.8hPa West 2.0mph /  3.2km/h 2.0mph /  3.2km/h 50% 0.00in /  0mm 33.0 W/m2
09:16 66.4 °F /  19.1 °C 47.7 °F /  8.7 °C 29.91in /  1012.8hPa Calm   1.0mph /  1.6km/h 51% 0.00in /  0mm 39.0 W/m2
09:22 66.9 °F /  19.4 °C 46.6 °F /  8.1 °C 29.91in /  1012.8hPa Calm   1.0mph /  1.6km/h 48% 0.00in /  0mm 33.0 W/m2
09:34 68.2 °F /  20.1 °C 48.9 °F /  9.4 °C 29.91in /  1012.8hPa Calm   1.0mph /  1.6km/h 50% 0.00in /  0mm 44.0 W/m2
09:40 68.7 °F /  20.4 °C 48.2 °F /  9 °C 29.91in /  1012.8hPa WSW 0.9mph /  1.4km/h 1.0mph /  1.6km/h 48% 0.00in /  0mm 37.0 W/m2
09:46 69.4 °F /  20.8 °C 49.5 °F /  9.7 °C 29.91in /  1012.8hPa Calm   1.0mph /  1.6km/h 49% 0.00in /  0mm 46.0 W/m2
09:52 70.2 °F /  21.2 °C 50.7 °F /  10.4 °C 29.91in /  1012.8hPa NW 0.9mph /  1.4km/h 2.0mph /  3.2km/h 50% 0.00in /  0mm 635.0 W/m2
09:58 71.2 °F /  21.8 °C 51.1 °F /  10.6 °C 29.91in /  1012.8hPa Calm   4.0mph /  6.4km/h 49% 0.00in /  0mm 654.0 W/m2
10:05 72.9 °F /  22.7 °C 52.5 °F /  11.4 °C 29.91in /  1012.8hPa Calm   4.0mph /  6.4km/h 49% 0.00in /  0mm 673.0 W/m2
10:11 74.1 °F /  23.4 °C 52.5 °F /  11.4 °C 29.91in /  1012.8hPa NE 2.9mph /  4.7km/h 5.0mph /  8km/h 47% 0.00in /  0mm 691.0 W/m2
10:17 75.4 °F /  24.1 °C 52.5 °F /  11.4 °C 29.91in /  1012.8hPa NNE 2.9mph /  4.7km/h 6.0mph /  9.7km/h 45% 0.00in /  0mm 708.0 W/m2
10:23 76.3 °F /  24.6 °C 52.7 °F /  11.5 °C 29.91in /  1012.8hPa NE 4.0mph /  6.4km/h 5.0mph /  8km/h 44% 0.00in /  0mm 726.0 W/m2
10:29 76.8 °F /  24.9 °C 53.2 °F /  11.8 °C 29.91in /  1012.8hPa ENE 2.9mph /  4.7km/h 7.0mph /  11.3km/h 44% 0.00in /  0mm 744.0 W/m2
10:35 77.5 °F /  25.3 °C 54.0 °F /  12.2 °C 29.90in /  1012.4hPa East 0.9mph /  1.4km/h 5.0mph /  8km/h 44% 0.00in /  0mm 763.0 W/m2
10:41 78.1 °F /  25.6 °C 53.8 °F /  12.1 °C 29.90in /  1012.4hPa ESE 4.9mph /  7.9km/h 5.0mph /  8km/h 43% 0.00in /  0mm 775.0 W/m2
10:48 78.3 °F /  25.7 °C 53.2 °F /  11.8 °C 29.90in /  1012.4hPa ENE 2.9mph /  4.7km/h 3.0mph /  4.8km/h 42% 0.00in /  0mm 789.0 W/m2
10:54 78.8 °F /  26 °C 53.1 °F /  11.7 °C 29.90in /  1012.4hPa ESE 2.0mph /  3.2km/h 8.0mph /  12.9km/h 41% 0.00in /  0mm 803.0 W/m2
11:00 79.0 °F /  26.1 °C 53.2 °F /  11.8 °C 29.90in /  1012.4hPa Calm   4.0mph /  6.4km/h 41% 0.00in /  0mm 817.0 W/m2
11:06 79.3 °F /  26.3 °C 53.6 °F /  12 °C 29.90in /  1012.4hPa ENE 2.0mph /  3.2km/h 4.0mph /  6.4km/h 41% 0.00in /  0mm 828.0 W/m2
11:18 80.4 °F /  26.9 °C 53.2 °F /  11.8 °C 29.90in /  1012.4hPa East 4.9mph /  7.9km/h 8.0mph /  12.9km/h 39% 0.00in /  0mm 853.0 W/m2
11:24 80.4 °F /  26.9 °C 54.5 °F /  12.5 °C 29.90in /  1012.4hPa East 6.9mph /  11.1km/h 12.0mph /  19.3km/h 41% 0.00in /  0mm 860.0 W/m2
11:30 80.8 °F /  27.1 °C 54.1 °F /  12.3 °C 29.90in /  1012.4hPa SE 6.9mph /  11.1km/h 11.0mph /  17.7km/h 40% 0.00in /  0mm 872.0 W/m2
11:36 80.8 °F /  27.1 °C 53.6 °F /  12 °C 29.89in /  1012.1hPa NE 4.9mph /  7.9km/h 9.0mph /  14.5km/h 39% 0.00in /  0mm 881.0 W/m2
11:43 81.1 °F /  27.3 °C 53.8 °F /  12.1 °C 29.89in /  1012.1hPa Calm   10.0mph /  16.1km/h 39% 0.00in /  0mm 891.0 W/m2
11:49 81.5 °F /  27.5 °C 53.4 °F /  11.9 °C 29.89in /  1012.1hPa ESE 4.0mph /  6.4km/h 7.0mph /  11.3km/h 38% 0.00in /  0mm 905.0 W/m2
11:55 81.7 °F /  27.6 °C 53.6 °F /  12 °C 29.89in /  1012.1hPa SSE 0.9mph /  1.4km/h 7.0mph /  11.3km/h 38% 0.00in /  0mm 916.0 W/m2
12:01 81.7 °F /  27.6 °C 53.6 °F /  12 °C 29.89in /  1012.1hPa Calm   6.0mph /  9.7km/h 38% 0.00in /  0mm 926.0 W/m2
12:07 81.7 °F /  27.6 °C 53.6 °F /  12 °C 29.88in /  1011.7hPa ENE 0.9mph /  1.4km/h 6.0mph /  9.7km/h 38% 0.00in /  0mm 969.0 W/m2
12:13 81.3 °F /  27.4 °C 54.0 °F /  12.2 °C 29.88in /  1011.7hPa East 4.0mph /  6.4km/h 9.0mph /  14.5km/h 39% 0.00in /  0mm 940.0 W/m2
12:20 81.3 °F /  27.4 °C 52.5 °F /  11.4 °C 29.88in /  1011.7hPa NE 4.0mph /  6.4km/h 7.0mph /  11.3km/h 37% 0.00in /  0mm 1023.0 W/m2
12:26 81.9 °F /  27.7 °C 53.1 °F /  11.7 °C 29.88in /  1011.7hPa North 0.9mph /  1.4km/h 4.0mph /  6.4km/h 37% 0.00in /  0mm 1060.0 W/m2
12:32 82.0 °F /  27.8 °C 54.0 °F /  12.2 °C 29.87in /  1011.4hPa North 4.0mph /  6.4km/h 6.0mph /  9.7km/h 38% 0.00in /  0mm 327.0 W/m2
12:38 81.9 °F /  27.7 °C 53.1 °F /  11.7 °C 29.87in /  1011.4hPa ENE 2.0mph /  3.2km/h 8.0mph /  12.9km/h 37% 0.00in /  0mm 849.0 W/m2
12:44 81.9 °F /  27.7 °C 53.1 °F /  11.7 °C 29.87in /  1011.4hPa North 4.0mph /  6.4km/h 7.0mph /  11.3km/h 37% 0.00in /  0mm 357.0 W/m2
12:56 80.8 °F /  27.1 °C 54.1 °F /  12.3 °C 29.86in /  1011.1hPa Calm   1.0mph /  1.6km/h 40% 0.00in /  0mm 264.0 W/m2
13:02 80.2 °F /  26.8 °C 53.1 °F /  11.7 °C 29.86in /  1011.1hPa Calm   5.0mph /  8km/h 39% 0.00in /  0mm 260.0 W/m2
13:08 80.1 °F /  26.7 °C 52.9 °F /  11.6 °C 29.86in /  1011.1hPa North 2.0mph /  3.2km/h 7.0mph /  11.3km/h 39% 0.00in /  0mm 318.0 W/m2
13:15 79.9 °F /  26.6 °C 53.4 °F /  11.9 °C 29.85in /  1010.7hPa Calm   2.0mph /  3.2km/h 40% 0.00in /  0mm 306.0 W/m2
13:21 79.9 °F /  26.6 °C 53.4 °F /  11.9 °C 29.85in /  1010.7hPa NNE 0.9mph /  1.4km/h 6.0mph /  9.7km/h 40% 0.00in /  0mm 332.0 W/m2
13:27 79.7 °F /  26.5 °C 53.2 °F /  11.8 °C 29.85in /  1010.7hPa NE 0.9mph /  1.4km/h 9.0mph /  14.5km/h 40% 0.00in /  0mm 327.0 W/m2
13:33 80.2 °F /  26.8 °C 53.8 °F /  12.1 °C 29.85in /  1010.7hPa East 6.9mph /  11.1km/h 9.0mph /  14.5km/h 40% 0.00in /  0mm 1139.0 W/m2
13:39 81.7 °F /  27.6 °C 53.6 °F /  12 °C 29.84in /  1010.4hPa East 4.0mph /  6.4km/h 7.0mph /  11.3km/h 38% 0.00in /  0mm 1099.0 W/m2
13:45 82.6 °F /  28.1 °C 52.9 °F /  11.6 °C 29.84in /  1010.4hPa South 0.9mph /  1.4km/h 4.0mph /  6.4km/h 36% 0.00in /  0mm 1107.0 W/m2
13:51 82.6 °F /  28.1 °C 54.3 °F /  12.4 °C 29.84in /  1010.4hPa SSE 2.0mph /  3.2km/h 7.0mph /  11.3km/h 38% 0.00in /  0mm 1102.0 W/m2
13:57 82.9 °F /  28.3 °C 54.0 °F /  12.2 °C 29.84in /  1010.4hPa NE 6.0mph /  9.7km/h 10.0mph /  16.1km/h 37% 0.00in /  0mm 765.0 W/m2
14:03 83.1 °F /  28.4 °C 54.9 °F /  12.7 °C 29.83in /  1010hPa North 4.9mph /  7.9km/h 6.0mph /  9.7km/h 38% 0.00in /  0mm 1067.0 W/m2
14:22 82.2 °F /  27.9 °C 53.4 °F /  11.9 °C 29.83in /  1010hPa Calm   7.0mph /  11.3km/h 37% 0.00in /  0mm 197.0 W/m2
14:34 82.8 °F /  28.2 °C 53.8 °F /  12.1 °C 29.82in /  1009.7hPa North 2.9mph /  4.7km/h 8.0mph /  12.9km/h 37% 0.00in /  0mm 988.0 W/m2
14:40 83.7 °F /  28.7 °C 54.7 °F /  12.6 °C 29.82in /  1009.7hPa NNW 4.0mph /  6.4km/h 10.0mph /  16.1km/h 37% 0.00in /  0mm 974.0 W/m2
14:46 84.6 °F /  29.2 °C 54.7 °F /  12.6 °C 29.82in /  1009.7hPa South 2.9mph /  4.7km/h 5.0mph /  8km/h 36% 0.00in /  0mm 904.0 W/m2
14:52 84.6 °F /  29.2 °C 54.0 °F /  12.2 °C 29.81in /  1009.4hPa NNW 2.9mph /  4.7km/h 6.0mph /  9.7km/h 35% 0.00in /  0mm 914.0 W/m2
14:59 83.8 °F /  28.8 °C 52.5 °F /  11.4 °C 29.81in /  1009.4hPa WNW 2.9mph /  4.7km/h 6.0mph /  9.7km/h 34% 0.00in /  0mm 195.0 W/m2
15:04 83.8 °F /  28.8 °C 53.2 °F /  11.8 °C 29.81in /  1009.4hPa West 2.9mph /  4.7km/h 6.0mph /  9.7km/h 35% 0.00in /  0mm 879.0 W/m2
15:11 83.3 °F /  28.5 °C 52.9 °F /  11.6 °C 29.81in /  1009.4hPa Calm   4.0mph /  6.4km/h 35% 0.00in /  0mm 881.0 W/m2
15:17 83.7 °F /  28.7 °C 54.0 °F /  12.2 °C 29.80in /  1009hPa WSW 2.0mph /  3.2km/h 5.0mph /  8km/h 36% 0.00in /  0mm 867.0 W/m2
15:23 84.0 °F /  28.9 °C 53.4 °F /  11.9 °C 29.80in /  1009hPa North 0.9mph /  1.4km/h 2.0mph /  3.2km/h 35% 0.00in /  0mm 207.0 W/m2
15:29 84.0 °F /  28.9 °C 53.4 °F /  11.9 °C 29.80in /  1009hPa Calm   4.0mph /  6.4km/h 35% 0.00in /  0mm 241.0 W/m2
15:35 83.8 °F /  28.8 °C 53.2 °F /  11.8 °C 29.80in /  1009hPa ESE 2.0mph /  3.2km/h 6.0mph /  9.7km/h 35% 0.00in /  0mm 181.0 W/m2
15:41 83.5 °F /  28.6 °C 53.8 °F /  12.1 °C 29.80in /  1009hPa NE 0.9mph /  1.4km/h 3.0mph /  4.8km/h 36% 0.00in /  0mm 142.0 W/m2
15:47 82.8 °F /  28.2 °C 53.1 °F /  11.7 °C 29.80in /  1009hPa Calm   3.0mph /  4.8km/h 36% 0.00in /  0mm 125.0 W/m2
15:54 82.4 °F /  28 °C 52.7 °F /  11.5 °C 29.80in /  1009hPa ESE 2.0mph /  3.2km/h 7.0mph /  11.3km/h 36% 0.00in /  0mm 116.0 W/m2
16:00 81.9 °F /  27.7 °C 53.1 °F /  11.7 °C 29.80in /  1009hPa SSE 4.9mph /  7.9km/h 6.0mph /  9.7km/h 37% 0.00in /  0mm 132.0 W/m2
16:06 82.0 °F /  27.8 °C 53.2 °F /  11.8 °C 29.80in /  1009hPa SSW 2.9mph /  4.7km/h 5.0mph /  8km/h 37% 0.00in /  0mm 659.0 W/m2
16:12 82.6 °F /  28.1 °C 52.9 °F /  11.6 °C 29.79in /  1008.7hPa East 0.9mph /  1.4km/h 4.0mph /  6.4km/h 36% 0.00in /  0mm 624.0 W/m2
16:18 83.1 °F /  28.4 °C 53.4 °F /  11.9 °C 29.79in /  1008.7hPa ESE 4.9mph /  7.9km/h 5.0mph /  8km/h 36% 0.00in /  0mm 580.0 W/m2
16:24 83.7 °F /  28.7 °C 53.1 °F /  11.7 °C 29.79in /  1008.7hPa Calm   5.0mph /  8km/h 35% 0.00in /  0mm 91.0 W/m2
16:30 83.7 °F /  28.7 °C 52.3 °F /  11.3 °C 29.79in /  1008.7hPa SW 0.9mph /  1.4km/h 6.0mph /  9.7km/h 34% 0.00in /  0mm 538.0 W/m2
16:36 83.1 °F /  28.4 °C 52.7 °F /  11.5 °C 29.79in /  1008.7hPa Calm   4.0mph /  6.4km/h 35% 0.00in /  0mm 230.0 W/m2
16:43 83.1 °F /  28.4 °C 51.8 °F /  11 °C 29.79in /  1008.7hPa Calm   3.0mph /  4.8km/h 34% 0.00in /  0mm 534.0 W/m2
16:49 83.5 °F /  28.6 °C 52.2 °F /  11.2 °C 29.79in /  1008.7hPa Calm   5.0mph /  8km/h 34% 0.00in /  0mm 531.0 W/m2
16:55 84.0 °F /  28.9 °C 52.7 °F /  11.5 °C 29.79in /  1008.7hPa SSE 0.9mph /  1.4km/h 6.0mph /  9.7km/h 34% 0.00in /  0mm 508.0 W/m2
17:01 84.4 °F /  29.1 °C 53.8 °F /  12.1 °C 29.79in /  1008.7hPa SE 8.1mph /  13km/h 8.1mph /  13km/h 35% 0.00in /  0mm 478.0 W/m2
17:07 84.6 °F /  29.2 °C 53.1 °F /  11.7 °C 29.78in /  1008.4hPa SSE 2.0mph /  3.2km/h 9.0mph /  14.5km/h 34% 0.00in /  0mm 461.0 W/m2
17:13 84.9 °F /  29.4 °C 53.4 °F /  11.9 °C 29.78in /  1008.4hPa SSE 2.9mph /  4.7km/h 7.0mph /  11.3km/h 34% 0.00in /  0mm 443.0 W/m2
17:20 85.3 °F /  29.6 °C 53.8 °F /  12.1 °C 29.78in /  1008.4hPa SE 2.0mph /  3.2km/h 3.0mph /  4.8km/h 34% 0.00in /  0mm 158.0 W/m2
17:25 84.9 °F /  29.4 °C 53.4 °F /  11.9 °C 29.78in /  1008.4hPa South 2.0mph /  3.2km/h 5.0mph /  8km/h 34% 0.00in /  0mm 88.0 W/m2
17:32 84.0 °F /  28.9 °C 52.7 °F /  11.5 °C 29.79in /  1008.7hPa South 2.0mph /  3.2km/h 2.0mph /  3.2km/h 34% 0.00in /  0mm 255.0 W/m2
17:38 83.3 °F /  28.5 °C 52.0 °F /  11.1 °C 29.78in /  1008.4hPa SE 4.9mph /  7.9km/h 5.0mph /  8km/h 34% 0.00in /  0mm 84.0 W/m2
17:44 82.9 °F /  28.3 °C 52.5 °F /  11.4 °C 29.79in /  1008.7hPa ESE 2.9mph /  4.7km/h 7.0mph /  11.3km/h 35% 0.00in /  0mm 51.0 W/m2
17:50 82.2 °F /  27.9 °C 51.8 °F /  11 °C 29.79in /  1008.7hPa SE 0.9mph /  1.4km/h 6.0mph /  9.7km/h 35% 0.00in /  0mm 42.0 W/m2
17:56 81.7 °F /  27.6 °C 51.4 °F /  10.8 °C 29.79in /  1008.7hPa Calm   4.0mph /  6.4km/h 35% 0.00in /  0mm 28.0 W/m2
18:02 81.1 °F /  27.3 °C 52.3 °F /  11.3 °C 29.79in /  1008.7hPa Calm   2.0mph /  3.2km/h 37% 0.00in /  0mm 26.0 W/m2
18:08 80.8 °F /  27.1 °C 52.9 °F /  11.6 °C 29.79in /  1008.7hPa East 2.0mph /  3.2km/h 2.0mph /  3.2km/h 38% 0.00in /  0mm 25.0 W/m2
18:15 80.2 °F /  26.8 °C 53.1 °F /  11.7 °C 29.79in /  1008.7hPa ESE 4.0mph /  6.4km/h 4.0mph /  6.4km/h 39% 0.00in /  0mm 23.0 W/m2
18:21 79.5 °F /  26.4 °C 52.3 °F /  11.3 °C 29.80in /  1009hPa ESE 2.9mph /  4.7km/h 3.0mph /  4.8km/h 39% 0.00in /  0mm 23.0 W/m2
18:27 79.2 °F /  26.2 °C 52.2 °F /  11.2 °C 29.80in /  1009hPa ESE 0.9mph /  1.4km/h 3.0mph /  4.8km/h 39% 0.00in /  0mm 19.0 W/m2
18:33 78.8 °F /  26 °C 52.5 °F /  11.4 °C 29.80in /  1009hPa SE 2.9mph /  4.7km/h 3.0mph /  4.8km/h 40% 0.00in /  0mm 12.0 W/m2
18:39 78.4 °F /  25.8 °C 52.2 °F /  11.2 °C 29.80in /  1009hPa SE 4.0mph /  6.4km/h 4.0mph /  6.4km/h 40% 0.00in /  0mm 9.0 W/m2
18:45 78.3 °F /  25.7 °C 52.7 °F /  11.5 °C 29.80in /  1009hPa SE 0.9mph /  1.4km/h 4.0mph /  6.4km/h 41% 0.00in /  0mm 5.0 W/m2
18:51 77.7 °F /  25.4 °C 52.2 °F /  11.2 °C 29.80in /  1009hPa Calm   6.0mph /  9.7km/h 41% 0.00in /  0mm 0.0 W/m2
18:57 77.5 °F /  25.3 °C 52.7 °F /  11.5 °C 29.80in /  1009hPa SSE 0.9mph /  1.4km/h 3.0mph /  4.8km/h 42% 0.00in /  0mm 0.0 W/m2
19:04 77.2 °F /  25.1 °C 52.9 °F /  11.6 °C 29.80in /  1009hPa SSW 0.9mph /  1.4km/h 2.0mph /  3.2km/h 43% 0.00in /  0mm 0.0 W/m2
19:10 76.8 °F /  24.9 °C 52.7 °F /  11.5 °C 29.80in /  1009hPa Calm   2.0mph /  3.2km/h 43% 0.00in /  0mm 0.0 W/m2
19:16 76.5 °F /  24.7 °C 52.3 °F /  11.3 °C 29.80in /  1009hPa SSE 0.9mph /  1.4km/h 3.0mph /  4.8km/h 43% 0.00in /  0mm 0.0 W/m2
19:22 76.3 °F /  24.6 °C 52.2 °F /  11.2 °C 29.80in /  1009hPa SE 0.9mph /  1.4km/h 5.0mph /  8km/h 43% 0.00in /  0mm 0.0 W/m2
19:28 75.9 °F /  24.4 °C 52.5 °F /  11.4 °C 29.80in /  1009hPa Calm   1.0mph /  1.6km/h 44% 0.00in /  0mm 0.0 W/m2
19:34 75.7 °F /  24.3 °C 52.3 °F /  11.3 °C 29.81in /  1009.4hPa Calm   4.0mph /  6.4km/h 44% 0.00in /  0mm 0.0 W/m2
19:41 75.7 °F /  24.3 °C 52.9 °F /  11.6 °C 29.81in /  1009.4hPa Calm   1.0mph /  1.6km/h 45% 0.00in /  0mm 0.0 W/m2
19:46 75.6 °F /  24.2 °C 52.7 °F /  11.5 °C 29.81in /  1009.4hPa Calm   2.0mph /  3.2km/h 45% 0.00in /  0mm 0.0 W/m2
19:53 75.4 °F /  24.1 °C 53.2 °F /  11.8 °C 29.81in /  1009.4hPa Calm     46% 0.00in /  0mm 0.0 W/m2
19:59 75.4 °F /  24.1 °C 53.2 °F /  11.8 °C 29.82in /  1009.7hPa East 2.9mph /  4.7km/h 5.0mph /  8km/h 46% 0.00in /  0mm 0.0 W/m2
20:05 75.2 °F /  24 °C 53.1 °F /  11.7 °C 29.82in /  1009.7hPa Calm   3.0mph /  4.8km/h 46% 0.00in /  0mm 0.0 W/m2
20:11 75.0 °F /  23.9 °C 53.4 °F /  11.9 °C 29.82in /  1009.7hPa Calm   1.0mph /  1.6km/h 47% 0.00in /  0mm 0.0 W/m2
20:17 74.8 °F /  23.8 °C 53.2 °F /  11.8 °C 29.83in /  1010hPa Calm   3.0mph /  4.8km/h 47% 0.00in /  0mm 0.0 W/m2
20:24 74.7 °F /  23.7 °C 53.6 °F /  12 °C 29.83in /  1010hPa SE 0.9mph /  1.4km/h 1.0mph /  1.6km/h 48% 0.00in /  0mm 0.0 W/m2
20:30 74.5 °F /  23.6 °C 53.4 °F /  11.9 °C 29.83in /  1010hPa ESE 0.9mph /  1.4km/h 2.0mph /  3.2km/h 48% 0.00in /  0mm 0.0 W/m2
20:36 74.3 °F /  23.5 °C 52.7 °F /  11.5 °C 29.83in /  1010hPa East 0.9mph /  1.4km/h 4.0mph /  6.4km/h 47% 0.00in /  0mm 0.0 W/m2
20:42 74.1 °F /  23.4 °C 52.5 °F /  11.4 °C 29.83in /  1010hPa ESE 2.0mph /  3.2km/h 6.0mph /  9.7km/h 47% 0.00in /  0mm 0.0 W/m2
20:48 74.1 °F /  23.4 °C 52.0 °F /  11.1 °C 29.83in /  1010hPa ESE 2.9mph /  4.7km/h 5.0mph /  8km/h 46% 0.00in /  0mm 0.0 W/m2
20:54 74.1 °F /  23.4 °C 52.0 °F /  11.1 °C 29.83in /  1010hPa SE 2.9mph /  4.7km/h 6.0mph /  9.7km/h 46% 0.00in /  0mm 0.0 W/m2
21:01 73.9 °F /  23.3 °C 51.8 °F /  11 °C 29.84in /  1010.4hPa Calm   5.0mph /  8km/h 46% 0.00in /  0mm 0.0 W/m2
21:06 73.9 °F /  23.3 °C 51.3 °F /  10.7 °C 29.83in /  1010hPa SE 2.9mph /  4.7km/h 9.0mph /  14.5km/h 45% 0.00in /  0mm 0.0 W/m2
21:12 73.9 °F /  23.3 °C 51.3 °F /  10.7 °C 29.84in /  1010.4hPa ESE 4.0mph /  6.4km/h 8.0mph /  12.9km/h 45% 0.00in /  0mm 0.0 W/m2
21:19 73.9 °F /  23.3 °C 51.3 °F /  10.7 °C 29.84in /  1010.4hPa ESE 6.0mph /  9.7km/h 6.0mph /  9.7km/h 45% 0.00in /  0mm 0.0 W/m2
21:25 73.8 °F /  23.2 °C 51.1 °F /  10.6 °C 29.84in /  1010.4hPa ESE 6.0mph /  9.7km/h 8.0mph /  12.9km/h 45% 0.00in /  0mm 0.0 W/m2
21:31 73.8 °F /  23.2 °C 51.1 °F /  10.6 °C 29.84in /  1010.4hPa ESE 4.0mph /  6.4km/h 8.0mph /  12.9km/h 45% 0.00in /  0mm 0.0 W/m2
21:37 73.8 °F /  23.2 °C 51.1 °F /  10.6 °C 29.85in /  1010.7hPa Calm   7.0mph /  11.3km/h 45% 0.00in /  0mm 0.0 W/m2
21:43 73.6 °F /  23.1 °C 50.9 °F /  10.5 °C 29.85in /  1010.7hPa South 0.9mph /  1.4km/h 3.0mph /  4.8km/h 45% 0.00in /  0mm 0.0 W/m2
21:49 73.6 °F /  23.1 °C 50.9 °F /  10.5 °C 29.85in /  1010.7hPa SSE 2.0mph /  3.2km/h 5.0mph /  8km/h 45% 0.00in /  0mm 0.0 W/m2
21:55 73.8 °F /  23.2 °C 51.1 °F /  10.6 °C 29.86in /  1011.1hPa ESE 2.0mph /  3.2km/h 6.0mph /  9.7km/h 45% 0.00in /  0mm 0.0 W/m2
22:02 73.8 °F /  23.2 °C 51.1 °F /  10.6 °C 29.86in /  1011.1hPa ESE 0.9mph /  1.4km/h 4.0mph /  6.4km/h 45% 0.00in /  0mm 0.0 W/m2
22:08 73.6 °F /  23.1 °C 50.9 °F /  10.5 °C 29.88in /  1011.7hPa North 4.9mph /  7.9km/h 6.0mph /  9.7km/h 45% 0.00in /  0mm 0.0 W/m2
22:14 73.6 °F /  23.1 °C 52.2 °F /  11.2 °C 29.88in /  1011.7hPa NNW 2.0mph /  3.2km/h 5.0mph /  8km/h 47% 0.00in /  0mm 0.0 W/m2
22:20 73.2 °F /  22.9 °C 51.8 °F /  11 °C 29.88in /  1011.7hPa North 2.0mph /  3.2km/h 3.0mph /  4.8km/h 47% 0.00in /  0mm 0.0 W/m2
22:26 73.0 °F /  22.8 °C 52.2 °F /  11.2 °C 29.88in /  1011.7hPa NW 4.0mph /  6.4km/h 4.0mph /  6.4km/h 48% 0.00in /  0mm 0.0 W/m2
22:32 73.0 °F /  22.8 °C 52.7 °F /  11.5 °C 29.88in /  1011.7hPa Calm   1.0mph /  1.6km/h 49% 0.00in /  0mm 0.0 W/m2
22:38 72.9 °F /  22.7 °C 53.1 °F /  11.7 °C 29.88in /  1011.7hPa Calm   3.0mph /  4.8km/h 50% 0.00in /  0mm 0.0 W/m2
22:44 72.7 °F /  22.6 °C 52.3 °F /  11.3 °C 29.88in /  1011.7hPa Calm   2.0mph /  3.2km/h 49% 0.00in /  0mm 0.0 W/m2
22:56 72.3 °F /  22.4 °C 52.2 °F /  11.2 °C 29.88in /  1011.7hPa Calm   2.0mph /  3.2km/h 49% 0.00in /  0mm 0.0 W/m2
23:02 72.1 °F /  22.3 °C 52.5 °F /  11.4 °C 29.88in /  1011.7hPa Calm   5.0mph /  8km/h 50% 0.00in /  0mm 0.0 W/m2
23:08 72.0 °F /  22.2 °C 52.9 °F /  11.6 °C 29.89in /  1012.1hPa Calm   6.0mph /  9.7km/h 51% 0.00in /  0mm 0.0 W/m2
23:14 71.8 °F /  22.1 °C 53.2 °F /  11.8 °C 29.88in /  1011.7hPa North 0.9mph /  1.4km/h 2.0mph /  3.2km/h 52% 0.00in /  0mm 0.0 W/m2
23:20 71.4 °F /  21.9 °C 53.4 °F /  11.9 °C 29.88in /  1011.7hPa Calm   1.0mph /  1.6km/h 53% 0.00in /  0mm 0.0 W/m2
23:27 71.4 °F /  21.9 °C 54.0 °F /  12.2 °C 29.88in /  1011.7hPa North 2.0mph /  3.2km/h 2.0mph /  3.2km/h 54% 0.00in /  0mm 0.0 W/m2
23:33 71.2 °F /  21.8 °C 53.8 °F /  12.1 °C 29.88in /  1011.7hPa Calm   2.0mph /  3.2km/h 54% 0.00in /  0mm 0.0 W/m2
23:39 71.2 °F /  21.8 °C 53.8 °F /  12.1 °C 29.88in /  1011.7hPa Calm   2.0mph /  3.2km/h 54% 0.00in /  0mm 0.0 W/m2
23:45 71.1 °F /  21.7 °C 53.6 °F /  12 °C 29.89in /  1012.1hPa Calm   3.0mph /  4.8km/h 54% 0.00in /  0mm 0.0 W/m2
23:51 71.1 °F /  21.7 °C 53.6 °F /  12 °C 29.89in /  1012.1hPa North 2.9mph /  4.7km/h 3.0mph /  4.8km/h 54% 0.00in /  0mm 0.0 W/m2
23:57 70.9 °F /  21.6 °C 55.4 °F /  13 °C 29.89in /  1012.1hPa NNW 0.9mph /  1.4km/h 3.0mph /  4.8km/h 58% 0.00in /  0mm 0.0 W/m2
Olympia, Windhoek, Namibia
Compliments of Weather Underground - 3 mb